sensor_id;sensor_type;location;lat;lon;timestamp;temperature;humidity
2647;DHT22;1333;50.958;6.770;2024-01-30T00:02:09;7.50;99.90
2647;DHT22;1333;50.958;6.770;2024-01-30T00:04:35;7.50;99.90
2647;DHT22;1333;50.958;6.770;2024-01-30T00:07:00;7.50;99.90
2647;DHT22;1333;50.958;6.770;2024-01-30T00:09:26;7.50;99.90
2647;DHT22;1333;50.958;6.770;2024-01-30T00:11:51;7.50;99.90
2647;DHT22;1333;50.958;6.770;2024-01-30T00:14:17;7.50;99.90
2647;DHT22;1333;50.958;6.770;2024-01-30T00:16:42;7.50;99.90
2647;DHT22;1333;50.958;6.770;2024-01-30T00:19:08;7.50;99.90
2647;DHT22;1333;50.958;6.770;2024-01-30T00:21:33;7.50;99.90
2647;DHT22;1333;50.958;6.770;2024-01-30T00:23:59;7.50;99.90
2647;DHT22;1333;50.958;6.770;2024-01-30T00:26:24;7.40;99.90
2647;DHT22;1333;50.958;6.770;2024-01-30T00:28:50;7.50;99.90
2647;DHT22;1333;50.958;6.770;2024-01-30T00:31:15;7.50;99.90
2647;DHT22;1333;50.958;6.770;2024-01-30T00:33:41;7.50;99.90
2647;DHT22;1333;50.958;6.770;2024-01-30T00:36:08;7.50;99.90
2647;DHT22;1333;50.958;6.770;2024-01-30T00:38:34;7.40;99.90
2647;DHT22;1333;50.958;6.770;2024-01-30T00:41:00;7.40;99.90
2647;DHT22;1333;50.958;6.770;2024-01-30T00:43:27;7.40;99.90
2647;DHT22;1333;50.958;6.770;2024-01-30T00:45:52;7.40;99.90
2647;DHT22;1333;50.958;6.770;2024-01-30T00:48:18;7.50;99.90
2647;DHT22;1333;50.958;6.770;2024-01-30T00:50:44;7.50;99.90
2647;DHT22;1333;50.958;6.770;2024-01-30T00:53:09;7.50;99.90
2647;DHT22;1333;50.958;6.770;2024-01-30T00:55:35;7.50;99.90
2647;DHT22;1333;50.958;6.770;2024-01-30T00:58:01;7.50;99.90
2647;DHT22;1333;50.958;6.770;2024-01-30T01:00:26;7.50;99.90
2647;DHT22;1333;50.958;6.770;2024-01-30T01:02:55;7.50;99.90
2647;DHT22;1333;50.958;6.770;2024-01-30T01:05:21;7.50;99.90
2647;DHT22;1333;50.958;6.770;2024-01-30T01:07:47;7.50;99.90
2647;DHT22;1333;50.958;6.770;2024-01-30T01:10:16;7.40;99.90
2647;DHT22;1333;50.958;6.770;2024-01-30T01:12:42;7.40;99.90
2647;DHT22;1333;50.958;6.770;2024-01-30T01:15:08;7.40;99.90
2647;DHT22;1333;50.958;6.770;2024-01-30T01:17:38;7.40;99.90
2647;DHT22;1333;50.958;6.770;2024-01-30T01:20:04;7.40;99.90
2647;DHT22;1333;50.958;6.770;2024-01-30T01:22:30;7.40;99.90
2647;DHT22;1333;50.958;6.770;2024-01-30T01:24:56;7.40;99.90
2647;DHT22;1333;50.958;6.770;2024-01-30T01:27:21;7.40;99.90
2647;DHT22;1333;50.958;6.770;2024-01-30T01:29:47;7.50;99.90
2647;DHT22;1333;50.958;6.770;2024-01-30T01:32:12;7.40;99.90
2647;DHT22;1333;50.958;6.770;2024-01-30T01:34:38;7.40;99.90
2647;DHT22;1333;50.958;6.770;2024-01-30T01:37:04;7.50;99.90
2647;DHT22;1333;50.958;6.770;2024-01-30T01:39:29;7.40;99.90
2647;DHT22;1333;50.958;6.770;2024-01-30T01:41:55;7.30;99.90
2647;DHT22;1333;50.958;6.770;2024-01-30T01:44:20;7.40;99.90
2647;DHT22;1333;50.958;6.770;2024-01-30T01:46:46;7.40;99.90
2647;DHT22;1333;50.958;6.770;2024-01-30T01:49:12;7.40;99.90
2647;DHT22;1333;50.958;6.770;2024-01-30T01:51:39;7.40;99.90
2647;DHT22;1333;50.958;6.770;2024-01-30T01:54:06;7.40;99.90
2647;DHT22;1333;50.958;6.770;2024-01-30T01:56:33;7.40;99.90
2647;DHT22;1333;50.958;6.770;2024-01-30T01:59:02;7.40;99.90
2647;DHT22;1333;50.958;6.770;2024-01-30T02:01:30;7.40;99.90
2647;DHT22;1333;50.958;6.770;2024-01-30T02:03:56;7.40;99.90
2647;DHT22;1333;50.958;6.770;2024-01-30T02:06:21;7.40;99.90
2647;DHT22;1333;50.958;6.770;2024-01-30T02:08:48;7.40;99.90
2647;DHT22;1333;50.958;6.770;2024-01-30T02:11:13;7.40;99.90
2647;DHT22;1333;50.958;6.770;2024-01-30T02:13:41;7.30;99.90
2647;DHT22;1333;50.958;6.770;2024-01-30T02:16:06;7.40;99.90
2647;DHT22;1333;50.958;6.770;2024-01-30T02:18:32;7.30;99.90
2647;DHT22;1333;50.958;6.770;2024-01-30T02:20:58;7.30;99.90
2647;DHT22;1333;50.958;6.770;2024-01-30T02:23:27;7.30;99.90
2647;DHT22;1333;50.958;6.770;2024-01-30T02:25:53;7.30;99.90
2647;DHT22;1333;50.958;6.770;2024-01-30T02:28:19;7.30;99.90
2647;DHT22;1333;50.958;6.770;2024-01-30T02:30:46;7.30;99.90
2647;DHT22;1333;50.958;6.770;2024-01-30T02:33:12;7.30;99.90
2647;DHT22;1333;50.958;6.770;2024-01-30T02:35:38;7.20;99.90
2647;DHT22;1333;50.958;6.770;2024-01-30T02:38:03;7.20;99.90
2647;DHT22;1333;50.958;6.770;2024-01-30T02:40:29;7.20;99.90
2647;DHT22;1333;50.958;6.770;2024-01-30T02:42:55;7.10;99.90
2647;DHT22;1333;50.958;6.770;2024-01-30T02:45:21;7.10;99.90
2647;DHT22;1333;50.958;6.770;2024-01-30T02:47:46;7.10;99.90
2647;DHT22;1333;50.958;6.770;2024-01-30T02:50:12;7.00;99.90
2647;DHT22;1333;50.958;6.770;2024-01-30T02:52:37;7.00;99.90
2647;DHT22;1333;50.958;6.770;2024-01-30T02:55:03;7.00;99.90
2647;DHT22;1333;50.958;6.770;2024-01-30T02:57:29;7.00;99.90
2647;DHT22;1333;50.958;6.770;2024-01-30T02:59:54;7.10;99.90
2647;DHT22;1333;50.958;6.770;2024-01-30T03:02:20;7.10;99.90
2647;DHT22;1333;50.958;6.770;2024-01-30T03:04:46;7.00;99.90
2647;DHT22;1333;50.958;6.770;2024-01-30T03:07:12;6.80;99.90
2647;DHT22;1333;50.958;6.770;2024-01-30T03:09:37;6.80;99.90
2647;DHT22;1333;50.958;6.770;2024-01-30T03:12:04;6.70;99.90
2647;DHT22;1333;50.958;6.770;2024-01-30T03:14:32;6.80;99.90
2647;DHT22;1333;50.958;6.770;2024-01-30T03:16:58;6.80;99.90
2647;DHT22;1333;50.958;6.770;2024-01-30T03:19:23;6.80;99.90
2647;DHT22;1333;50.958;6.770;2024-01-30T03:21:49;6.80;99.90
2647;DHT22;1333;50.958;6.770;2024-01-30T03:24:15;6.80;99.90
2647;DHT22;1333;50.958;6.770;2024-01-30T03:26:41;6.90;99.90
2647;DHT22;1333;50.958;6.770;2024-01-30T03:29:07;6.80;99.90
2647;DHT22;1333;50.958;6.770;2024-01-30T03:31:33;6.90;99.90
2647;DHT22;1333;50.958;6.770;2024-01-30T03:33:58;6.80;99.90
2647;DHT22;1333;50.958;6.770;2024-01-30T03:36:24;6.80;99.90
2647;DHT22;1333;50.958;6.770;2024-01-30T03:38:49;6.80;99.90
2647;DHT22;1333;50.958;6.770;2024-01-30T03:41:15;6.80;99.90
2647;DHT22;1333;50.958;6.770;2024-01-30T03:43:41;6.80;99.90
2647;DHT22;1333;50.958;6.770;2024-01-30T03:46:06;6.80;99.90
2647;DHT22;1333;50.958;6.770;2024-01-30T03:48:32;6.90;99.90
2647;DHT22;1333;50.958;6.770;2024-01-30T03:50:57;6.90;99.90
2647;DHT22;1333;50.958;6.770;2024-01-30T03:53:23;6.90;99.90
2647;DHT22;1333;50.958;6.770;2024-01-30T03:55:48;6.90;99.90
2647;DHT22;1333;50.958;6.770;2024-01-30T03:58:14;7.00;99.90
2647;DHT22;1333;50.958;6.770;2024-01-30T04:00:39;6.90;99.90
2647;DHT22;1333;50.958;6.770;2024-01-30T04:03:06;7.00;99.90
2647;DHT22;1333;50.958;6.770;2024-01-30T04:05:31;7.00;99.90
2647;DHT22;1333;50.958;6.770;2024-01-30T04:07:57;6.90;99.90
2647;DHT22;1333;50.958;6.770;2024-01-30T04:10:23;6.90;99.90
2647;DHT22;1333;50.958;6.770;2024-01-30T04:12:50;7.00;99.90
2647;DHT22;1333;50.958;6.770;2024-01-30T04:15:17;7.00;99.90
2647;DHT22;1333;50.958;6.770;2024-01-30T04:17:43;6.90;99.90
2647;DHT22;1333;50.958;6.770;2024-01-30T04:20:15;6.90;99.90
2647;DHT22;1333;50.958;6.770;2024-01-30T04:22:43;6.90;99.90
2647;DHT22;1333;50.958;6.770;2024-01-30T04:25:09;6.90;99.90
2647;DHT22;1333;50.958;6.770;2024-01-30T04:27:34;6.90;99.90
2647;DHT22;1333;50.958;6.770;2024-01-30T04:30:00;6.90;99.90
2647;DHT22;1333;50.958;6.770;2024-01-30T04:32:25;6.80;99.90
2647;DHT22;1333;50.958;6.770;2024-01-30T04:34:51;6.80;99.90
2647;DHT22;1333;50.958;6.770;2024-01-30T04:37:16;6.70;99.90
2647;DHT22;1333;50.958;6.770;2024-01-30T04:39:42;6.60;99.90
2647;DHT22;1333;50.958;6.770;2024-01-30T04:42:08;6.60;99.90
2647;DHT22;1333;50.958;6.770;2024-01-30T04:44:33;6.60;99.90
2647;DHT22;1333;50.958;6.770;2024-01-30T04:46:59;6.60;99.90
2647;DHT22;1333;50.958;6.770;2024-01-30T04:49:27;6.50;99.90
2647;DHT22;1333;50.958;6.770;2024-01-30T04:51:52;6.40;99.90
2647;DHT22;1333;50.958;6.770;2024-01-30T04:54:18;6.40;99.90
2647;DHT22;1333;50.958;6.770;2024-01-30T04:56:43;6.30;99.90
2647;DHT22;1333;50.958;6.770;2024-01-30T04:59:09;6.30;99.90
2647;DHT22;1333;50.958;6.770;2024-01-30T05:01:34;6.20;99.90
2647;DHT22;1333;50.958;6.770;2024-01-30T05:04:00;6.20;99.90
2647;DHT22;1333;50.958;6.770;2024-01-30T05:06:26;6.30;99.90
2647;DHT22;1333;50.958;6.770;2024-01-30T05:08:52;6.30;99.90
2647;DHT22;1333;50.958;6.770;2024-01-30T05:11:18;6.30;99.90
2647;DHT22;1333;50.958;6.770;2024-01-30T05:13:43;6.30;99.90
2647;DHT22;1333;50.958;6.770;2024-01-30T05:16:09;6.20;99.90
2647;DHT22;1333;50.958;6.770;2024-01-30T05:18:35;6.20;99.90
2647;DHT22;1333;50.958;6.770;2024-01-30T05:21:01;6.10;99.90
2647;DHT22;1333;50.958;6.770;2024-01-30T05:23:27;6.10;99.90
2647;DHT22;1333;50.958;6.770;2024-01-30T05:25:52;6.00;99.90
2647;DHT22;1333;50.958;6.770;2024-01-30T05:28:18;6.00;99.90
2647;DHT22;1333;50.958;6.770;2024-01-30T05:30:43;6.10;99.90
2647;DHT22;1333;50.958;6.770;2024-01-30T05:33:09;6.10;99.90
2647;DHT22;1333;50.958;6.770;2024-01-30T05:35:35;6.00;99.90
2647;DHT22;1333;50.958;6.770;2024-01-30T05:38:00;6.10;99.90
2647;DHT22;1333;50.958;6.770;2024-01-30T05:40:26;6.10;99.90
2647;DHT22;1333;50.958;6.770;2024-01-30T05:42:52;6.20;99.90
2647;DHT22;1333;50.958;6.770;2024-01-30T05:45:18;6.20;99.90
2647;DHT22;1333;50.958;6.770;2024-01-30T05:47:43;6.10;99.90
2647;DHT22;1333;50.958;6.770;2024-01-30T05:50:09;6.10;99.90
2647;DHT22;1333;50.958;6.770;2024-01-30T05:52:34;6.00;99.90
2647;DHT22;1333;50.958;6.770;2024-01-30T05:55:00;6.10;99.90
2647;DHT22;1333;50.958;6.770;2024-01-30T05:57:25;6.00;99.90
2647;DHT22;1333;50.958;6.770;2024-01-30T05:59:51;6.00;99.90
2647;DHT22;1333;50.958;6.770;2024-01-30T06:02:17;6.10;99.90
2647;DHT22;1333;50.958;6.770;2024-01-30T06:04:43;6.10;99.90
2647;DHT22;1333;50.958;6.770;2024-01-30T06:07:09;6.10;99.90
2647;DHT22;1333;50.958;6.770;2024-01-30T06:09:35;6.20;99.90
2647;DHT22;1333;50.958;6.770;2024-01-30T06:12:00;6.20;99.90
2647;DHT22;1333;50.958;6.770;2024-01-30T06:14:26;6.20;99.90
2647;DHT22;1333;50.958;6.770;2024-01-30T06:16:51;6.30;99.90
2647;DHT22;1333;50.958;6.770;2024-01-30T06:19:17;6.30;99.90
2647;DHT22;1333;50.958;6.770;2024-01-30T06:21:42;6.30;99.90
2647;DHT22;1333;50.958;6.770;2024-01-30T06:24:08;6.40;99.90
2647;DHT22;1333;50.958;6.770;2024-01-30T06:26:34;6.40;99.90
2647;DHT22;1333;50.958;6.770;2024-01-30T06:28:59;6.40;99.90
2647;DHT22;1333;50.958;6.770;2024-01-30T06:31:25;6.50;99.90
2647;DHT22;1333;50.958;6.770;2024-01-30T06:33:51;6.50;99.90
2647;DHT22;1333;50.958;6.770;2024-01-30T06:36:16;6.60;99.90
2647;DHT22;1333;50.958;6.770;2024-01-30T06:38:42;6.60;99.90
2647;DHT22;1333;50.958;6.770;2024-01-30T06:41:07;6.60;99.90
2647;DHT22;1333;50.958;6.770;2024-01-30T06:43:33;6.50;99.90
2647;DHT22;1333;50.958;6.770;2024-01-30T06:45:58;6.40;99.90
2647;DHT22;1333;50.958;6.770;2024-01-30T06:48:24;6.40;99.90
2647;DHT22;1333;50.958;6.770;2024-01-30T06:50:52;6.40;99.90
2647;DHT22;1333;50.958;6.770;2024-01-30T06:53:19;6.50;99.90
2647;DHT22;1333;50.958;6.770;2024-01-30T06:55:44;6.60;99.90
2647;DHT22;1333;50.958;6.770;2024-01-30T06:58:10;6.60;99.90
2647;DHT22;1333;50.958;6.770;2024-01-30T07:00:35;6.70;99.90
2647;DHT22;1333;50.958;6.770;2024-01-30T07:03:01;6.70;99.90
2647;DHT22;1333;50.958;6.770;2024-01-30T07:05:27;6.70;99.90
2647;DHT22;1333;50.958;6.770;2024-01-30T07:07:52;6.70;99.90
2647;DHT22;1333;50.958;6.770;2024-01-30T07:10:18;6.70;99.90
2647;DHT22;1333;50.958;6.770;2024-01-30T07:12:43;6.80;99.90
2647;DHT22;1333;50.958;6.770;2024-01-30T07:15:09;6.80;99.90
2647;DHT22;1333;50.958;6.770;2024-01-30T07:17:35;6.70;99.90
2647;DHT22;1333;50.958;6.770;2024-01-30T07:20:01;6.70;99.90
2647;DHT22;1333;50.958;6.770;2024-01-30T07:22:29;6.70;99.90
2647;DHT22;1333;50.958;6.770;2024-01-30T07:24:55;6.70;99.90
2647;DHT22;1333;50.958;6.770;2024-01-30T07:27:21;6.70;99.90
2647;DHT22;1333;50.958;6.770;2024-01-30T07:29:46;6.60;99.90
2647;DHT22;1333;50.958;6.770;2024-01-30T07:32:12;6.50;99.90
2647;DHT22;1333;50.958;6.770;2024-01-30T07:34:37;6.60;99.90
2647;DHT22;1333;50.958;6.770;2024-01-30T07:37:03;6.60;99.90
2647;DHT22;1333;50.958;6.770;2024-01-30T07:39:29;6.60;99.90
2647;DHT22;1333;50.958;6.770;2024-01-30T07:41:54;6.60;99.90
2647;DHT22;1333;50.958;6.770;2024-01-30T07:44:20;6.70;99.90
2647;DHT22;1333;50.958;6.770;2024-01-30T07:46:46;6.80;99.90
2647;DHT22;1333;50.958;6.770;2024-01-30T07:49:11;6.90;99.90
2647;DHT22;1333;50.958;6.770;2024-01-30T07:51:39;7.10;99.90
2647;DHT22;1333;50.958;6.770;2024-01-30T07:54:05;7.20;99.90
2647;DHT22;1333;50.958;6.770;2024-01-30T07:56:30;7.30;99.90
2647;DHT22;1333;50.958;6.770;2024-01-30T07:58:56;7.40;99.90
2647;DHT22;1333;50.958;6.770;2024-01-30T08:01:21;7.40;99.90
2647;DHT22;1333;50.958;6.770;2024-01-30T08:03:47;7.40;99.90
2647;DHT22;1333;50.958;6.770;2024-01-30T08:06:12;7.30;99.90
2647;DHT22;1333;50.958;6.770;2024-01-30T08:08:38;7.40;99.90
2647;DHT22;1333;50.958;6.770;2024-01-30T08:11:03;7.40;99.90
2647;DHT22;1333;50.958;6.770;2024-01-30T08:13:29;7.30;99.90
2647;DHT22;1333;50.958;6.770;2024-01-30T08:15:55;7.40;99.90
2647;DHT22;1333;50.958;6.770;2024-01-30T08:18:20;7.50;99.90
2647;DHT22;1333;50.958;6.770;2024-01-30T08:20:46;7.50;99.90
2647;DHT22;1333;50.958;6.770;2024-01-30T08:23:11;7.60;99.90
2647;DHT22;1333;50.958;6.770;2024-01-30T08:25:37;7.70;99.90
2647;DHT22;1333;50.958;6.770;2024-01-30T08:28:03;7.80;99.90
2647;DHT22;1333;50.958;6.770;2024-01-30T08:30:29;7.90;99.90
2647;DHT22;1333;50.958;6.770;2024-01-30T08:32:54;7.90;99.90
2647;DHT22;1333;50.958;6.770;2024-01-30T08:35:20;8.00;99.90
2647;DHT22;1333;50.958;6.770;2024-01-30T08:37:46;8.20;99.90
2647;DHT22;1333;50.958;6.770;2024-01-30T08:40:11;8.30;99.90
2647;DHT22;1333;50.958;6.770;2024-01-30T08:42:37;8.50;99.90
2647;DHT22;1333;50.958;6.770;2024-01-30T08:45:02;8.70;99.90
2647;DHT22;1333;50.958;6.770;2024-01-30T08:47:30;8.80;99.90
2647;DHT22;1333;50.958;6.770;2024-01-30T08:49:55;9.00;99.90
2647;DHT22;1333;50.958;6.770;2024-01-30T08:52:21;9.30;99.90
2647;DHT22;1333;50.958;6.770;2024-01-30T08:54:46;9.70;99.90
2647;DHT22;1333;50.958;6.770;2024-01-30T08:57:12;10.30;99.90
2647;DHT22;1333;50.958;6.770;2024-01-30T08:59:37;10.50;99.90
2647;DHT22;1333;50.958;6.770;2024-01-30T09:02:03;10.60;99.90
2647;DHT22;1333;50.958;6.770;2024-01-30T09:04:29;10.80;99.90
2647;DHT22;1333;50.958;6.770;2024-01-30T09:06:55;10.90;99.90
2647;DHT22;1333;50.958;6.770;2024-01-30T09:09:20;11.00;99.90
2647;DHT22;1333;50.958;6.770;2024-01-30T09:11:46;11.10;99.90
2647;DHT22;1333;50.958;6.770;2024-01-30T09:14:11;11.60;99.90
2647;DHT22;1333;50.958;6.770;2024-01-30T09:16:37;11.70;99.90
2647;DHT22;1333;50.958;6.770;2024-01-30T09:19:03;11.80;99.90
2647;DHT22;1333;50.958;6.770;2024-01-30T09:21:28;11.80;99.90
2647;DHT22;1333;50.958;6.770;2024-01-30T09:24:02;11.90;99.90
2647;DHT22;1333;50.958;6.770;2024-01-30T09:26:29;11.90;99.90
2647;DHT22;1333;50.958;6.770;2024-01-30T09:28:54;12.10;99.90
2647;DHT22;1333;50.958;6.770;2024-01-30T09:31:20;12.20;99.90
2647;DHT22;1333;50.958;6.770;2024-01-30T09:33:45;12.20;99.90
2647;DHT22;1333;50.958;6.770;2024-01-30T09:36:13;12.10;99.90
2647;DHT22;1333;50.958;6.770;2024-01-30T09:38:40;12.10;99.90
2647;DHT22;1333;50.958;6.770;2024-01-30T09:41:09;12.10;99.90
2647;DHT22;1333;50.958;6.770;2024-01-30T09:43:37;11.90;99.90
2647;DHT22;1333;50.958;6.770;2024-01-30T09:46:03;11.90;99.90
2647;DHT22;1333;50.958;6.770;2024-01-30T09:48:31;11.70;99.90
2647;DHT22;1333;50.958;6.770;2024-01-30T09:50:57;11.70;99.90
2647;DHT22;1333;50.958;6.770;2024-01-30T09:53:23;11.70;99.90
2647;DHT22;1333;50.958;6.770;2024-01-30T09:55:50;11.60;99.90
2647;DHT22;1333;50.958;6.770;2024-01-30T09:58:16;11.50;99.90
2647;DHT22;1333;50.958;6.770;2024-01-30T10:00:42;11.40;99.90
2647;DHT22;1333;50.958;6.770;2024-01-30T10:03:08;11.30;99.90
2647;DHT22;1333;50.958;6.770;2024-01-30T10:05:35;11.30;99.90
2647;DHT22;1333;50.958;6.770;2024-01-30T10:08:01;11.40;99.90
2647;DHT22;1333;50.958;6.770;2024-01-30T10:10:26;11.40;99.90
2647;DHT22;1333;50.958;6.770;2024-01-30T10:12:52;11.50;99.90
2647;DHT22;1333;50.958;6.770;2024-01-30T10:15:18;11.60;99.90
2647;DHT22;1333;50.958;6.770;2024-01-30T10:17:45;11.60;99.90
2647;DHT22;1333;50.958;6.770;2024-01-30T10:20:11;11.70;99.90
2647;DHT22;1333;50.958;6.770;2024-01-30T10:22:37;11.70;99.90
2647;DHT22;1333;50.958;6.770;2024-01-30T10:25:04;11.60;99.90
2647;DHT22;1333;50.958;6.770;2024-01-30T10:27:29;11.60;99.90
2647;DHT22;1333;50.958;6.770;2024-01-30T10:29:55;11.40;99.90
2647;DHT22;1333;50.958;6.770;2024-01-30T10:32:21;11.40;99.90
2647;DHT22;1333;50.958;6.770;2024-01-30T10:34:47;11.40;99.90
2647;DHT22;1333;50.958;6.770;2024-01-30T10:37:12;11.40;99.90
2647;DHT22;1333;50.958;6.770;2024-01-30T10:39:41;11.50;99.90
2647;DHT22;1333;50.958;6.770;2024-01-30T10:42:18;11.60;99.90
2647;DHT22;1333;50.958;6.770;2024-01-30T10:45:00;11.60;99.90
2647;DHT22;1333;50.958;6.770;2024-01-30T10:47:29;11.80;99.90
2647;DHT22;1333;50.958;6.770;2024-01-30T10:49:55;11.80;99.90
2647;DHT22;1333;50.958;6.770;2024-01-30T10:52:23;12.00;99.90
2647;DHT22;1333;50.958;6.770;2024-01-30T10:54:51;12.10;99.90
2647;DHT22;1333;50.958;6.770;2024-01-30T10:57:17;12.20;99.90
2647;DHT22;1333;50.958;6.770;2024-01-30T10:59:44;12.20;99.90
2647;DHT22;1333;50.958;6.770;2024-01-30T11:02:11;12.20;99.90
2647;DHT22;1333;50.958;6.770;2024-01-30T11:04:37;12.30;99.90
2647;DHT22;1333;50.958;6.770;2024-01-30T11:07:13;12.40;99.90
2647;DHT22;1333;50.958;6.770;2024-01-30T11:09:40;12.40;99.90
2647;DHT22;1333;50.958;6.770;2024-01-30T11:12:12;12.50;99.90
2647;DHT22;1333;50.958;6.770;2024-01-30T11:14:38;12.60;99.90
2647;DHT22;1333;50.958;6.770;2024-01-30T11:17:05;12.70;99.90
2647;DHT22;1333;50.958;6.770;2024-01-30T11:19:31;12.70;99.90
2647;DHT22;1333;50.958;6.770;2024-01-30T11:21:57;12.80;99.90
2647;DHT22;1333;50.958;6.770;2024-01-30T11:24:27;12.90;99.90
2647;DHT22;1333;50.958;6.770;2024-01-30T11:26:56;12.90;99.90
2647;DHT22;1333;50.958;6.770;2024-01-30T11:29:29;13.00;99.90
2647;DHT22;1333;50.958;6.770;2024-01-30T11:31:56;13.20;99.90
2647;DHT22;1333;50.958;6.770;2024-01-30T11:34:22;13.40;99.90
2647;DHT22;1333;50.958;6.770;2024-01-30T11:39:27;13.80;99.90
2647;DHT22;1333;50.958;6.770;2024-01-30T11:41:53;13.80;99.90
2647;DHT22;1333;50.958;6.770;2024-01-30T11:44:20;13.90;99.90
2647;DHT22;1333;50.958;6.770;2024-01-30T11:46:50;14.00;99.90
2647;DHT22;1333;50.958;6.770;2024-01-30T11:49:16;14.20;99.90
2647;DHT22;1333;50.958;6.770;2024-01-30T11:51:45;14.20;99.90
2647;DHT22;1333;50.958;6.770;2024-01-30T11:54:11;14.40;99.90
2647;DHT22;1333;50.958;6.770;2024-01-30T11:56:37;14.30;99.90
2647;DHT22;1333;50.958;6.770;2024-01-30T11:59:04;14.40;99.90
2647;DHT22;1333;50.958;6.770;2024-01-30T12:01:29;14.40;99.90
2647;DHT22;1333;50.958;6.770;2024-01-30T12:03:57;14.40;99.90
2647;DHT22;1333;50.958;6.770;2024-01-30T12:06:23;14.50;99.90
2647;DHT22;1333;50.958;6.770;2024-01-30T12:08:58;14.50;99.90
2647;DHT22;1333;50.958;6.770;2024-01-30T12:11:24;14.60;99.90
2647;DHT22;1333;50.958;6.770;2024-01-30T12:13:52;14.70;99.90
2647;DHT22;1333;50.958;6.770;2024-01-30T12:16:18;14.80;99.90
2647;DHT22;1333;50.958;6.770;2024-01-30T12:18:43;14.80;99.90
2647;DHT22;1333;50.958;6.770;2024-01-30T12:21:09;14.90;99.90
2647;DHT22;1333;50.958;6.770;2024-01-30T12:23:35;15.20;99.90
2647;DHT22;1333;50.958;6.770;2024-01-30T12:26:01;15.60;99.90
2647;DHT22;1333;50.958;6.770;2024-01-30T12:28:29;15.80;99.90
2647;DHT22;1333;50.958;6.770;2024-01-30T12:31:01;16.00;99.90
2647;DHT22;1333;50.958;6.770;2024-01-30T12:33:31;16.10;99.90
2647;DHT22;1333;50.958;6.770;2024-01-30T12:35:57;16.20;99.90
2647;DHT22;1333;50.958;6.770;2024-01-30T12:38:27;16.10;99.90
2647;DHT22;1333;50.958;6.770;2024-01-30T12:40:55;15.80;99.90
2647;DHT22;1333;50.958;6.770;2024-01-30T12:43:22;15.60;99.90
2647;DHT22;1333;50.958;6.770;2024-01-30T12:45:48;15.50;99.90
2647;DHT22;1333;50.958;6.770;2024-01-30T12:48:13;15.50;99.90
2647;DHT22;1333;50.958;6.770;2024-01-30T12:50:39;15.60;99.90
2647;DHT22;1333;50.958;6.770;2024-01-30T12:53:05;15.70;99.90
2647;DHT22;1333;50.958;6.770;2024-01-30T12:55:31;15.80;99.90
2647;DHT22;1333;50.958;6.770;2024-01-30T12:57:56;16.10;99.90
2647;DHT22;1333;50.958;6.770;2024-01-30T13:00:22;16.10;99.90
2647;DHT22;1333;50.958;6.770;2024-01-30T13:02:48;16.50;99.90
2647;DHT22;1333;50.958;6.770;2024-01-30T13:05:14;16.80;99.90
2647;DHT22;1333;50.958;6.770;2024-01-30T13:07:39;17.10;99.90
2647;DHT22;1333;50.958;6.770;2024-01-30T13:10:05;17.00;99.90
2647;DHT22;1333;50.958;6.770;2024-01-30T13:12:31;17.00;99.90
2647;DHT22;1333;50.958;6.770;2024-01-30T13:15:01;16.70;99.90
2647;DHT22;1333;50.958;6.770;2024-01-30T13:17:27;16.10;99.90
2647;DHT22;1333;50.958;6.770;2024-01-30T13:19:53;15.80;99.90
2647;DHT22;1333;50.958;6.770;2024-01-30T13:22:19;15.50;99.90
2647;DHT22;1333;50.958;6.770;2024-01-30T13:24:47;15.20;99.90
2647;DHT22;1333;50.958;6.770;2024-01-30T13:27:12;15.10;99.90
2647;DHT22;1333;50.958;6.770;2024-01-30T13:29:38;15.00;99.90
2647;DHT22;1333;50.958;6.770;2024-01-30T13:32:03;14.80;99.90
2647;DHT22;1333;50.958;6.770;2024-01-30T13:34:29;14.60;99.90
2647;DHT22;1333;50.958;6.770;2024-01-30T13:36:55;14.50;99.90
2647;DHT22;1333;50.958;6.770;2024-01-30T13:39:20;14.40;99.90
2647;DHT22;1333;50.958;6.770;2024-01-30T13:41:46;14.30;99.90
2647;DHT22;1333;50.958;6.770;2024-01-30T13:44:11;14.20;99.90
2647;DHT22;1333;50.958;6.770;2024-01-30T13:46:37;14.10;99.90
2647;DHT22;1333;50.958;6.770;2024-01-30T13:49:04;13.90;99.90
2647;DHT22;1333;50.958;6.770;2024-01-30T13:51:30;13.90;99.90
2647;DHT22;1333;50.958;6.770;2024-01-30T13:53:55;13.80;99.90
2647;DHT22;1333;50.958;6.770;2024-01-30T13:56:21;13.80;99.90
2647;DHT22;1333;50.958;6.770;2024-01-30T13:58:48;13.70;99.90
2647;DHT22;1333;50.958;6.770;2024-01-30T14:01:15;13.60;99.90
2647;DHT22;1333;50.958;6.770;2024-01-30T14:03:40;13.60;99.90
2647;DHT22;1333;50.958;6.770;2024-01-30T14:06:06;13.50;99.90
2647;DHT22;1333;50.958;6.770;2024-01-30T14:08:32;13.50;99.90
2647;DHT22;1333;50.958;6.770;2024-01-30T14:10:58;13.40;99.90
2647;DHT22;1333;50.958;6.770;2024-01-30T14:13:23;13.40;99.90
2647;DHT22;1333;50.958;6.770;2024-01-30T14:15:51;13.50;99.90
2647;DHT22;1333;50.958;6.770;2024-01-30T14:18:16;13.40;99.90
2647;DHT22;1333;50.958;6.770;2024-01-30T14:20:42;13.40;99.90
2647;DHT22;1333;50.958;6.770;2024-01-30T14:23:07;13.30;99.90
2647;DHT22;1333;50.958;6.770;2024-01-30T14:25:33;13.40;99.90
2647;DHT22;1333;50.958;6.770;2024-01-30T14:27:58;13.20;99.90
2647;DHT22;1333;50.958;6.770;2024-01-30T14:30:24;13.30;99.90
2647;DHT22;1333;50.958;6.770;2024-01-30T14:32:49;13.40;99.90
2647;DHT22;1333;50.958;6.770;2024-01-30T14:35:15;13.40;99.90
2647;DHT22;1333;50.958;6.770;2024-01-30T14:37:41;13.40;99.90
2647;DHT22;1333;50.958;6.770;2024-01-30T14:40:07;13.30;99.90
2647;DHT22;1333;50.958;6.770;2024-01-30T14:42:33;13.30;99.90
2647;DHT22;1333;50.958;6.770;2024-01-30T14:44:59;13.40;99.90
2647;DHT22;1333;50.958;6.770;2024-01-30T14:47:25;13.40;99.90
2647;DHT22;1333;50.958;6.770;2024-01-30T14:49:51;13.50;99.90
2647;DHT22;1333;50.958;6.770;2024-01-30T14:52:17;13.40;99.90
2647;DHT22;1333;50.958;6.770;2024-01-30T14:54:43;13.30;99.90
2647;DHT22;1333;50.958;6.770;2024-01-30T14:57:08;13.40;99.90
2647;DHT22;1333;50.958;6.770;2024-01-30T14:59:34;13.30;99.90
2647;DHT22;1333;50.958;6.770;2024-01-30T15:02:00;13.30;99.90
2647;DHT22;1333;50.958;6.770;2024-01-30T15:04:26;13.30;99.90
2647;DHT22;1333;50.958;6.770;2024-01-30T15:06:52;13.20;99.90
2647;DHT22;1333;50.958;6.770;2024-01-30T15:09:17;13.20;99.90
2647;DHT22;1333;50.958;6.770;2024-01-30T15:11:44;13.20;99.90
2647;DHT22;1333;50.958;6.770;2024-01-30T15:14:10;13.10;99.90
2647;DHT22;1333;50.958;6.770;2024-01-30T15:16:36;13.10;99.90
2647;DHT22;1333;50.958;6.770;2024-01-30T15:19:02;13.20;99.90
2647;DHT22;1333;50.958;6.770;2024-01-30T15:21:30;13.20;99.90
2647;DHT22;1333;50.958;6.770;2024-01-30T15:23:56;13.20;99.90
2647;DHT22;1333;50.958;6.770;2024-01-30T15:26:21;13.10;99.90
2647;DHT22;1333;50.958;6.770;2024-01-30T15:28:47;13.00;99.90
2647;DHT22;1333;50.958;6.770;2024-01-30T15:31:13;13.10;99.90
2647;DHT22;1333;50.958;6.770;2024-01-30T15:33:38;13.10;99.90
2647;DHT22;1333;50.958;6.770;2024-01-30T15:36:04;13.00;99.90
2647;DHT22;1333;50.958;6.770;2024-01-30T15:38:30;13.00;99.90
2647;DHT22;1333;50.958;6.770;2024-01-30T15:40:56;13.10;99.90
2647;DHT22;1333;50.958;6.770;2024-01-30T15:43:22;13.00;99.90
2647;DHT22;1333;50.958;6.770;2024-01-30T15:45:49;13.00;99.90
2647;DHT22;1333;50.958;6.770;2024-01-30T15:48:16;13.00;99.90
2647;DHT22;1333;50.958;6.770;2024-01-30T15:50:41;13.00;99.90
2647;DHT22;1333;50.958;6.770;2024-01-30T15:53:07;12.90;99.90
2647;DHT22;1333;50.958;6.770;2024-01-30T15:55:32;12.80;99.90
2647;DHT22;1333;50.958;6.770;2024-01-30T15:57:59;12.70;99.90
2647;DHT22;1333;50.958;6.770;2024-01-30T16:00:25;12.70;99.90
2647;DHT22;1333;50.958;6.770;2024-01-30T16:02:52;12.60;99.90
2647;DHT22;1333;50.958;6.770;2024-01-30T16:05:17;12.60;99.90